Kezdőlap
METAR-TAF:

METAR-TAF

Repülőterek :

La Paz, Bolívia

földrajzi szélesség: 16-31S, földrajzi hosszúság: 068-11W, magasság: 4058 m

Jelenlegi meteorológiai megfigyelések

A jelentés 13 perccel ezelõtt készült, 16:00 UTC
Különbözõ irányokból fújó szél 2 kt
Hőmérséklet 13°C
Páratartalom 15%
Légköri nyomás 1042 hPa
Látótávolság 10 km, vagy több

METAR: SLLP 161600Z VRB02KT 9999 NSC 13/M13 Q1042

Idő: 12:13 (16:13 UTC)

Előrejelzés

A jelentés 6 órával és 13 perccel ezelõtt készült, 10:00 UTC
Az előrejelzés 16-én 12 óra UTC és 17-én 12 óra UTC között érvényes
Különbözõ irányokból fújó szél 2 kt
Látótávolság 10 km, vagy több
16-én 13 óra UTC és 16-én 16 óra UTC között fokozatosan kialakuló
Dél-délkeleti szél 12 kt
17-én 00 óra UTC és 17-én 03 óra UTC között fokozatosan kialakuló
Keleti szél 6 kt

TAF: SLLP 161000Z 1612/1712 VRB02KT 9999 NSC TX15/1619Z TNM05/1711Z BECMG 1613/1616 16012KT BECMG 1700/1703 08006KT

Meteorológiai megfigyelések és előrejelzések több, mint 4000 repülőtéren (METAR és TAF jelentéseket).

A térképen piros és sárga pontok jelzik az elérhető meteorológiai állomásokat.

Mozgassa az egeret a pont fölött, hogy megjelenjen az állomás neve.

Azután kattintson az időjárási megfigyelések és előrejelzések megtekintéséhez.

A térkép megváltoztatása: kattintson a fekete keresztel jelölt zöld gombra ráközelítéshez, a vonallal jelölt zöld gombra távolításhoz, vagy a zöld nyilakra a szomszédos térképek eléréséhez.


METAR-TAF: